createdAt,value
2023-04-28T00:01:06.767Z,15.20
2023-04-28T00:06:08.336Z,14.90
2023-04-28T00:11:10.780Z,15.70
2023-04-28T00:16:12.100Z,16.80
2023-04-28T00:21:13.466Z,17.43
2023-04-28T00:26:15.044Z,17.63
2023-04-28T00:31:18.263Z,17.93
2023-04-28T00:36:20.233Z,18.40
2023-04-28T00:41:21.623Z,18.93
2023-04-28T00:46:31.477Z,19.57
2023-04-28T00:51:33.133Z,19.77
2023-04-28T00:56:34.927Z,19.53
2023-04-28T01:01:37.106Z,19.60
2023-04-28T01:06:39.678Z,20.03
2023-04-28T01:11:41.106Z,19.00
2023-04-28T01:16:44.746Z,19.47
2023-04-28T01:21:46.220Z,20.80
2023-04-28T01:27:05.486Z,20.20
2023-04-28T01:32:06.956Z,21.30
2023-04-28T01:37:09.058Z,19.47
2023-04-28T01:42:11.817Z,20.73
2023-04-28T01:47:13.211Z,18.13
2023-04-28T01:52:14.395Z,18.67
2023-04-28T01:57:17.529Z,19.80
2023-04-28T02:02:20.002Z,19.97
2023-04-28T02:07:21.321Z,20.07
2023-04-28T02:12:22.650Z,20.37
2023-04-28T02:17:25.309Z,19.47
2023-04-28T02:22:26.677Z,20.03
2023-04-28T02:27:28.167Z,22.63
2023-04-28T02:32:30.015Z,23.03
2023-04-28T02:37:31.515Z,24.40
2023-04-28T02:42:32.819Z,22.33
2023-04-28T02:47:34.036Z,24.87
2023-04-28T02:52:35.316Z,25.00
2023-04-28T02:57:36.627Z,25.07
2023-04-28T03:02:38.153Z,25.60
2023-04-28T03:07:39.646Z,25.77
2023-04-28T03:12:41.057Z,26.20
2023-04-28T03:17:42.627Z,24.33
2023-04-28T03:22:44.346Z,26.43
2023-04-28T03:27:45.632Z,26.33
2023-04-28T03:32:47.103Z,26.53
2023-04-28T03:37:49.970Z,27.77
2023-04-28T03:42:51.293Z,26.63
2023-04-28T03:48:00.735Z,28.13
2023-04-28T03:53:02.336Z,28.37
2023-04-28T03:58:03.729Z,27.07
2023-04-28T04:03:05.178Z,27.30
2023-04-28T04:08:06.596Z,28.30
2023-04-28T04:13:07.722Z,28.60
2023-04-28T04:18:09.124Z,28.83
2023-04-28T04:23:30.932Z,30.53
2023-04-28T04:28:32.197Z,29.23
2023-04-28T04:33:34.128Z,29.73
2023-04-28T04:38:36.263Z,31.13
2023-04-28T04:43:48.027Z,32.67
2023-04-28T04:48:49.660Z,31.23
2023-04-28T04:53:51.331Z,33.73
2023-04-28T04:58:52.651Z,33.20
2023-04-28T05:04:13.101Z,33.03
2023-04-28T05:09:14.587Z,33.00
2023-04-28T05:14:16.907Z,32.67
2023-04-28T05:19:19.272Z,34.33
2023-04-28T05:24:23.813Z,32.53
2023-04-28T05:29:26.424Z,33.67
2023-04-28T05:34:28.305Z,34.47
2023-04-28T05:39:30.002Z,32.93
2023-04-28T05:44:35.307Z,34.17
2023-04-28T05:49:37.510Z,34.63
2023-04-28T05:54:40.457Z,35.23
2023-04-28T05:59:42.948Z,35.00
2023-04-28T06:04:44.683Z,34.50
2023-04-28T06:09:46.346Z,34.23
2023-04-28T06:14:49.432Z,34.10
2023-04-28T06:19:53.506Z,34.87
2023-04-28T06:24:54.930Z,33.93
2023-04-28T06:30:04.333Z,35.97
2023-04-28T06:35:06.261Z,36.30
2023-04-28T06:40:08.297Z,31.27
2023-04-28T06:45:11.294Z,26.17
2023-04-28T06:50:12.687Z,20.80
2023-04-28T06:55:16.563Z,16.87
2023-04-28T07:00:18.139Z,13.20
2023-04-28T07:05:19.417Z,11.57
2023-04-28T07:10:20.825Z,9.20
2023-04-28T07:15:23.295Z,9.20
2023-04-28T07:20:24.701Z,7.47
2023-04-28T07:25:26.284Z,5.27
2023-04-28T07:30:28.410Z,6.33
2023-04-28T07:35:30.158Z,5.67
2023-04-28T07:40:31.576Z,4.07
2023-04-28T07:45:32.882Z,4.30
2023-04-28T07:50:34.424Z,5.13
2023-04-28T07:55:36.650Z,6.00
2023-04-28T08:00:39.750Z,3.75
2023-04-28T08:05:44.245Z,2.33
2023-04-28T08:10:45.604Z,2.10
2023-04-28T08:15:47.886Z,2.35
2023-04-28T08:20:49.200Z,2.13
2023-04-28T08:25:50.712Z,1.83
2023-04-28T08:30:53.827Z,2.03
2023-04-28T08:35:55.723Z,1.38
2023-04-28T08:40:57.164Z,1.38
2023-04-28T08:45:59.024Z,1.10
2023-04-28T08:51:01.723Z,0.95
2023-04-28T08:56:06.216Z,1.05
2023-04-28T09:01:08.209Z,1.10
2023-04-28T09:06:09.455Z,0.82
2023-04-28T09:11:12.796Z,0.85
2023-04-28T09:16:14.059Z,0.73
2023-04-28T09:21:16.555Z,0.88
2023-04-28T09:26:18.491Z,0.40
2023-04-28T09:31:24.611Z,0.50
2023-04-28T09:36:28.925Z,0.32
2023-04-28T09:41:44.771Z,0.50
2023-04-28T09:46:46.865Z,0.30
2023-04-28T09:51:48.233Z,0.47
2023-04-28T09:56:50.375Z,0.70
2023-04-28T10:01:52.129Z,1.10
2023-04-28T10:06:53.529Z,1.40
2023-04-28T10:11:54.750Z,1.98
2023-04-28T10:16:58.466Z,1.98
2023-04-28T10:22:24.248Z,1.52
2023-04-28T10:27:30.893Z,1.30
2023-04-28T10:32:32.792Z,0.60
2023-04-28T10:38:05.367Z,0.63
2023-04-28T10:43:14.521Z,0.50
2023-04-28T10:48:16.496Z,0.65
2023-04-28T10:53:17.843Z,0.70
2023-04-28T10:58:19.103Z,1.58
2023-04-28T11:03:44.019Z,0.57
2023-04-28T11:08:45.398Z,0.73
2023-04-28T11:13:47.761Z,0.70
2023-04-28T11:19:03.892Z,0.60
2023-04-28T11:24:09.546Z,1.00
2023-04-28T11:29:12.045Z,0.80
2023-04-28T11:34:19.464Z,0.90
2023-04-28T11:39:31.575Z,1.13
2023-04-28T11:44:33.218Z,1.15
2023-04-28T11:49:45.272Z,1.90
2023-04-28T11:54:53.025Z,1.00
2023-04-28T12:00:12.020Z,1.20
2023-04-28T12:05:14.020Z,1.38
2023-04-28T12:10:19.176Z,1.30
2023-04-28T12:15:22.204Z,1.08
2023-04-28T12:20:35.598Z,1.00
2023-04-28T12:25:47.724Z,1.30
2023-04-28T12:30:49.200Z,1.20
2023-04-28T12:35:50.530Z,1.27
2023-04-28T12:40:52.899Z,1.10
2023-04-28T12:45:55.812Z,0.80
2023-04-28T12:50:57.211Z,0.90
2023-04-28T12:55:58.826Z,0.95
2023-04-28T13:01:00.862Z,1.00
2023-04-28T13:06:02.395Z,1.20
2023-04-28T13:11:07.420Z,1.10
2023-04-28T13:16:14.275Z,1.20
2023-04-28T13:21:15.714Z,0.98
2023-04-28T13:26:19.223Z,1.35
2023-04-28T13:31:20.687Z,1.75
2023-04-28T13:36:22.840Z,1.48
2023-04-28T13:41:25.056Z,0.90
2023-04-28T13:46:26.984Z,0.95
2023-04-28T13:51:28.244Z,2.83
2023-04-28T13:56:31.262Z,1.50
2023-04-28T14:01:32.682Z,5.38
2023-04-28T14:06:34.857Z,1.60
2023-04-28T14:11:36.234Z,1.50
2023-04-28T14:16:37.445Z,1.50
2023-04-28T14:21:38.927Z,1.58
2023-04-28T14:26:43.130Z,1.35
2023-04-28T14:31:44.381Z,1.50
2023-04-28T14:36:47.235Z,1.83
2023-04-28T14:41:48.533Z,1.50
2023-04-28T14:46:50.027Z,1.70
2023-04-28T14:51:51.505Z,1.30
2023-04-28T14:56:52.882Z,1.50
2023-04-28T15:01:55.919Z,1.52
2023-04-28T15:06:59.009Z,1.65
2023-04-28T15:12:01.665Z,1.23
2023-04-28T15:17:03.902Z,0.95
2023-04-28T15:22:05.140Z,1.60
2023-04-28T15:27:06.618Z,1.10
2023-04-28T15:32:07.993Z,0.90
2023-04-28T15:37:38.047Z,1.20
2023-04-28T15:42:42.021Z,1.20
2023-04-28T15:47:44.598Z,1.23
2023-04-28T15:52:46.223Z,0.90
2023-04-28T15:57:48.287Z,0.80
2023-04-28T16:02:50.803Z,0.90
2023-04-28T16:07:53.307Z,0.80
2023-04-28T16:12:54.682Z,0.98
2023-04-28T16:17:56.175Z,1.60
2023-04-28T16:22:57.553Z,0.88
2023-04-28T16:27:58.990Z,1.10
2023-04-28T16:33:00.677Z,0.98
2023-04-28T16:38:03.382Z,0.90
2023-04-28T16:43:05.311Z,0.88
2023-04-28T16:48:06.898Z,0.93
2023-04-28T16:53:08.655Z,0.98
2023-04-28T16:58:09.939Z,1.10
2023-04-28T17:03:11.400Z,1.20
2023-04-28T17:08:13.192Z,1.17
2023-04-28T17:13:14.511Z,1.10
2023-04-28T17:18:15.812Z,1.23
2023-04-28T17:23:17.715Z,0.70
2023-04-28T17:28:19.103Z,1.23
2023-04-28T17:33:28.992Z,1.23
2023-04-28T17:38:31.752Z,1.20
2023-04-28T17:43:33.205Z,1.30
2023-04-28T17:48:34.651Z,1.80
2023-04-28T17:53:37.201Z,2.20
2023-04-28T17:58:41.799Z,2.10
2023-04-28T18:03:44.610Z,2.40
2023-04-28T18:08:46.277Z,2.83
2023-04-28T18:13:47.501Z,2.50
2023-04-28T18:18:48.873Z,2.70
2023-04-28T18:23:50.553Z,3.73
2023-04-28T18:28:52.337Z,4.13
2023-04-28T18:33:54.495Z,4.80
2023-04-28T18:38:57.002Z,5.57
2023-04-28T18:43:58.333Z,5.80
2023-04-28T18:48:59.729Z,6.07
2023-04-28T18:54:02.064Z,5.90
2023-04-28T18:59:07.320Z,6.53
2023-04-28T19:04:09.354Z,7.13
2023-04-28T19:09:10.886Z,7.83
2023-04-28T19:14:12.157Z,7.87
2023-04-28T19:19:13.596Z,7.70
2023-04-28T19:24:14.908Z,9.37
2023-04-28T19:29:16.532Z,10.20
2023-04-28T19:34:17.745Z,10.73
2023-04-28T19:39:19.120Z,10.17
2023-04-28T19:44:21.800Z,10.73
2023-04-28T19:49:23.385Z,11.47
2023-04-28T19:54:25.032Z,14.03
2023-04-28T19:59:26.438Z,14.93
2023-04-28T20:04:29.938Z,14.83
2023-04-28T20:09:35.556Z,15.57
2023-04-28T20:14:36.891Z,16.90
2023-04-28T20:19:38.524Z,18.07
2023-04-28T20:24:39.768Z,19.97
2023-04-28T20:29:41.186Z,17.10
2023-04-28T20:34:43.587Z,18.20
2023-04-28T20:39:44.905Z,16.67
2023-04-28T20:44:46.602Z,16.53
2023-04-28T20:49:48.469Z,17.93
2023-04-28T20:54:51.428Z,18.47
2023-04-28T20:59:52.819Z,19.43
2023-04-28T21:04:54.396Z,20.03
2023-04-28T21:09:55.747Z,21.13
2023-04-28T21:14:58.900Z,23.07
2023-04-28T21:20:00.241Z,25.47
2023-04-28T21:25:01.659Z,26.63
2023-04-28T21:30:03.490Z,26.93
2023-04-28T21:35:05.979Z,27.30
2023-04-28T21:40:08.689Z,29.77
2023-04-28T21:45:10.675Z,30.00
2023-04-28T21:50:12.404Z,20.03
2023-04-28T21:55:13.614Z,26.13
2023-04-28T22:00:16.127Z,23.83
2023-04-28T22:05:18.043Z,22.80
2023-04-28T22:10:19.632Z,22.47
2023-04-28T22:15:21.309Z,21.87
2023-04-28T22:20:22.989Z,21.83
2023-04-28T22:25:24.690Z,23.03
2023-04-28T22:30:26.405Z,19.47
2023-04-28T22:35:28.108Z,22.87
2023-04-28T22:40:29.514Z,22.00
2023-04-28T22:45:31.089Z,24.47
2023-04-28T22:50:32.700Z,21.33
2023-04-28T22:55:34.386Z,24.63
2023-04-28T23:00:36.324Z,23.33
2023-04-28T23:05:38.207Z,25.33
2023-04-28T23:10:40.016Z,23.70
2023-04-28T23:15:41.371Z,25.23
2023-04-28T23:20:42.676Z,25.77
2023-04-28T23:25:43.966Z,24.83
2023-04-28T23:30:45.536Z,28.13
2023-04-28T23:35:46.947Z,25.97
2023-04-28T23:40:48.422Z,22.23
2023-04-28T23:45:49.870Z,28.80
2023-04-28T23:50:51.384Z,31.13
2023-04-28T23:55:52.801Z,29.63
